sensor_id;sensor_type;location;lat;lon;timestamp;pressure;altitude;pressure_sealevel;temperature;humidity
71149;BME280;59072;42.144;25.200;2023-02-28T00:00:46;100581.38;;;11.16;88.67
71149;BME280;59072;42.144;25.200;2023-02-28T00:03:11;100567.84;;;11.04;88.34
71149;BME280;59072;42.144;25.200;2023-02-28T00:05:37;100581.75;;;11.26;87.48
71149;BME280;59072;42.144;25.200;2023-02-28T00:08:02;100591.97;;;11.36;88.04
71149;BME280;59072;42.144;25.200;2023-02-28T00:10:30;100592.00;;;11.29;87.98
71149;BME280;59072;42.144;25.200;2023-02-28T00:12:59;100590.72;;;11.45;87.28
71149;BME280;59072;42.144;25.200;2023-02-28T00:15:25;100561.56;;;11.37;86.79
71149;BME280;59072;42.144;25.200;2023-02-28T00:17:51;100595.63;;;11.55;85.79
71149;BME280;59072;42.144;25.200;2023-02-28T00:20:19;100574.19;;;11.61;85.03
71149;BME280;59072;42.144;25.200;2023-02-28T00:22:47;100599.63;;;11.71;85.42
71149;BME280;59072;42.144;25.200;2023-02-28T00:25:14;100597.75;;;11.78;83.97
71149;BME280;59072;42.144;25.200;2023-02-28T00:27:40;100590.53;;;11.78;84.09
71149;BME280;59072;42.144;25.200;2023-02-28T00:30:10;100601.22;;;11.85;83.29
71149;BME280;59072;42.144;25.200;2023-02-28T00:32:39;100606.56;;;11.85;83.71
71149;BME280;59072;42.144;25.200;2023-02-28T00:35:05;100601.84;;;11.87;82.98
71149;BME280;59072;42.144;25.200;2023-02-28T00:37:31;100625.41;;;12.03;83.07
71149;BME280;59072;42.144;25.200;2023-02-28T00:39:57;100619.31;;;11.90;83.55
71149;BME280;59072;42.144;25.200;2023-02-28T00:42:23;100618.09;;;11.79;84.17
71149;BME280;59072;42.144;25.200;2023-02-28T00:44:49;100640.84;;;12.01;83.59
71149;BME280;59072;42.144;25.200;2023-02-28T00:47:14;100645.84;;;11.78;84.33
71149;BME280;59072;42.144;25.200;2023-02-28T00:49:40;100649.88;;;11.42;85.10
71149;BME280;59072;42.144;25.200;2023-02-28T00:52:06;100646.41;;;11.35;85.43
71149;BME280;59072;42.144;25.200;2023-02-28T00:54:31;100661.47;;;11.16;86.60
71149;BME280;59072;42.144;25.200;2023-02-28T00:56:57;100651.63;;;10.90;86.99
71149;BME280;59072;42.144;25.200;2023-02-28T00:59:22;100634.00;;;10.75;87.50
71149;BME280;59072;42.144;25.200;2023-02-28T01:01:48;100654.09;;;10.51;89.22
71149;BME280;59072;42.144;25.200;2023-02-28T01:04:14;100651.44;;;10.71;89.19
71149;BME280;59072;42.144;25.200;2023-02-28T01:06:40;100651.84;;;11.01;86.86
71149;BME280;59072;42.144;25.200;2023-02-28T01:09:06;100629.69;;;10.68;87.44
71149;BME280;59072;42.144;25.200;2023-02-28T01:11:32;100642.41;;;10.59;88.31
71149;BME280;59072;42.144;25.200;2023-02-28T01:13:58;100659.84;;;10.55;89.63
71149;BME280;59072;42.144;25.200;2023-02-28T01:16:24;100643.41;;;10.58;88.16
71149;BME280;59072;42.144;25.200;2023-02-28T01:18:53;100677.22;;;10.37;90.05
71149;BME280;59072;42.144;25.200;2023-02-28T01:21:21;100676.22;;;10.45;89.58
71149;BME280;59072;42.144;25.200;2023-02-28T01:23:47;100671.72;;;10.45;89.65
71149;BME280;59072;42.144;25.200;2023-02-28T01:26:15;100686.91;;;10.38;89.81
71149;BME280;59072;42.144;25.200;2023-02-28T01:28:44;100667.09;;;10.13;91.04
71149;BME280;59072;42.144;25.200;2023-02-28T01:31:09;100683.19;;;10.33;90.83
71149;BME280;59072;42.144;25.200;2023-02-28T01:33:36;100671.28;;;10.35;90.04
71149;BME280;59072;42.144;25.200;2023-02-28T01:38:30;100689.06;;;10.21;89.90
71149;BME280;59072;42.144;25.200;2023-02-28T01:40:57;100709.38;;;10.29;90.67
71149;BME280;59072;42.144;25.200;2023-02-28T01:43:24;100696.47;;;10.26;90.42
71149;BME280;59072;42.144;25.200;2023-02-28T01:45:52;100697.31;;;10.33;89.67
71149;BME280;59072;42.144;25.200;2023-02-28T01:48:21;100713.56;;;10.45;89.75
71149;BME280;59072;42.144;25.200;2023-02-28T01:50:49;100696.22;;;10.14;90.38
71149;BME280;59072;42.144;25.200;2023-02-28T01:53:18;100711.28;;;10.35;90.17
71149;BME280;59072;42.144;25.200;2023-02-28T01:55:47;100698.28;;;10.19;89.86
71149;BME280;59072;42.144;25.200;2023-02-28T01:58:13;100714.72;;;10.29;90.66
71149;BME280;59072;42.144;25.200;2023-02-28T02:00:39;100705.94;;;10.35;88.33
71149;BME280;59072;42.144;25.200;2023-02-28T02:03:14;100721.31;;;10.33;89.00
71149;BME280;59072;42.144;25.200;2023-02-28T02:05:44;100729.09;;;10.28;88.62
71149;BME280;59072;42.144;25.200;2023-02-28T02:08:17;100734.41;;;10.28;88.99
71149;BME280;59072;42.144;25.200;2023-02-28T02:10:45;100735.16;;;10.09;88.42
71149;BME280;59072;42.144;25.200;2023-02-28T02:35:37;100760.34;;;9.64;89.68
71149;BME280;59072;42.144;25.200;2023-02-28T02:43:40;100752.09;;;9.53;89.85
71149;BME280;59072;42.144;25.200;2023-02-28T02:46:16;100746.94;;;9.51;89.84
71149;BME280;59072;42.144;25.200;2023-02-28T02:48:45;100754.47;;;9.41;90.14
71149;BME280;59072;42.144;25.200;2023-02-28T02:51:17;100751.13;;;9.32;90.30
71149;BME280;59072;42.144;25.200;2023-02-28T02:54:04;100739.28;;;9.13;91.58
71149;BME280;59072;42.144;25.200;2023-02-28T02:56:32;100766.19;;;9.47;90.35
71149;BME280;59072;42.144;25.200;2023-02-28T02:59:04;100785.13;;;9.37;90.53
71149;BME280;59072;42.144;25.200;2023-02-28T03:01:32;100778.50;;;9.26;91.26
71149;BME280;59072;42.144;25.200;2023-02-28T03:04:16;100787.19;;;9.35;91.32
71149;BME280;59072;42.144;25.200;2023-02-28T03:06:42;100776.00;;;9.18;90.84
71149;BME280;59072;42.144;25.200;2023-02-28T03:09:07;100800.63;;;9.27;91.39
71149;BME280;59072;42.144;25.200;2023-02-28T03:11:35;100809.81;;;9.24;90.90
71149;BME280;59072;42.144;25.200;2023-02-28T03:36:25;100800.34;;;8.93;91.82
71149;BME280;59072;42.144;25.200;2023-02-28T03:38:57;100807.22;;;9.09;90.82
71149;BME280;59072;42.144;25.200;2023-02-28T03:41:30;100808.75;;;9.18;90.05
71149;BME280;59072;42.144;25.200;2023-02-28T03:44:01;100806.06;;;8.97;89.78
71149;BME280;59072;42.144;25.200;2023-02-28T03:46:31;100808.09;;;8.95;90.27
71149;BME280;59072;42.144;25.200;2023-02-28T03:49:04;100813.50;;;9.01;89.48
71149;BME280;59072;42.144;25.200;2023-02-28T03:51:34;100830.97;;;9.11;89.86
71149;BME280;59072;42.144;25.200;2023-02-28T03:54:05;100818.44;;;9.04;89.58
71149;BME280;59072;42.144;25.200;2023-02-28T03:56:34;100832.94;;;9.02;89.75
71149;BME280;59072;42.144;25.200;2023-02-28T04:00:00;100842.97;;;9.00;90.75
71149;BME280;59072;42.144;25.200;2023-02-28T04:02:00;100830.66;;;8.99;89.63
71149;BME280;59072;42.144;25.200;2023-02-28T04:04:26;100831.81;;;8.90;89.47
71149;BME280;59072;42.144;25.200;2023-02-28T04:06:52;100817.59;;;8.82;90.32
71149;BME280;59072;42.144;25.200;2023-02-28T04:09:25;100846.63;;;8.99;89.50
71149;BME280;59072;42.144;25.200;2023-02-28T04:11:53;100840.03;;;8.95;89.44
71149;BME280;59072;42.144;25.200;2023-02-28T04:14:21;100855.84;;;9.18;89.15
71149;BME280;59072;42.144;25.200;2023-02-28T04:16:47;100861.75;;;9.41;87.24
71149;BME280;59072;42.144;25.200;2023-02-28T04:19:13;100845.22;;;9.03;87.30
71149;BME280;59072;42.144;25.200;2023-02-28T04:21:47;100860.56;;;9.01;88.81
71149;BME280;59072;42.144;25.200;2023-02-28T04:24:21;100861.81;;;8.83;89.60
71149;BME280;59072;42.144;25.200;2023-02-28T04:26:50;100851.94;;;8.99;88.96
71149;BME280;59072;42.144;25.200;2023-02-28T04:31:52;100853.16;;;8.96;88.56
71149;BME280;59072;42.144;25.200;2023-02-28T04:34:23;100857.25;;;8.99;88.12
71149;BME280;59072;42.144;25.200;2023-02-28T04:36:49;100849.72;;;8.81;88.39
71149;BME280;59072;42.144;25.200;2023-02-28T04:39:16;100850.84;;;8.72;88.72
71149;BME280;59072;42.144;25.200;2023-02-28T04:41:44;100849.66;;;8.59;89.64
71149;BME280;59072;42.144;25.200;2023-02-28T04:44:09;100866.09;;;8.63;89.96
71149;BME280;59072;42.144;25.200;2023-02-28T04:46:35;100877.59;;;8.70;89.50
71149;BME280;59072;42.144;25.200;2023-02-28T04:49:00;100880.84;;;8.51;90.69
71149;BME280;59072;42.144;25.200;2023-02-28T04:51:26;100864.72;;;8.52;90.20
71149;BME280;59072;42.144;25.200;2023-02-28T04:53:52;100887.34;;;8.63;90.57
71149;BME280;59072;42.144;25.200;2023-02-28T04:56:18;100880.47;;;8.69;90.18
71149;BME280;59072;42.144;25.200;2023-02-28T04:58:44;100865.72;;;8.36;91.07
71149;BME280;59072;42.144;25.200;2023-02-28T05:01:21;100860.59;;;8.50;90.41
71149;BME280;59072;42.144;25.200;2023-02-28T05:03:48;100886.25;;;8.57;90.79
71149;BME280;59072;42.144;25.200;2023-02-28T05:06:17;100894.06;;;8.59;90.24
71149;BME280;59072;42.144;25.200;2023-02-28T05:08:43;100896.84;;;8.72;89.19
71149;BME280;59072;42.144;25.200;2023-02-28T05:13:48;100892.50;;;8.64;89.95
71149;BME280;59072;42.144;25.200;2023-02-28T05:16:14;100876.91;;;8.61;90.07
71149;BME280;59072;42.144;25.200;2023-02-28T05:18:40;100893.38;;;8.72;89.27
71149;BME280;59072;42.144;25.200;2023-02-28T05:21:12;100919.34;;;8.55;90.39
71149;BME280;59072;42.144;25.200;2023-02-28T05:23:52;100899.72;;;8.56;90.07
71149;BME280;59072;42.144;25.200;2023-02-28T05:26:18;100901.84;;;8.60;89.81
71149;BME280;59072;42.144;25.200;2023-02-28T05:28:44;100895.69;;;8.30;90.75
71149;BME280;59072;42.144;25.200;2023-02-28T05:31:13;100920.19;;;8.55;91.00
71149;BME280;59072;42.144;25.200;2023-02-28T05:33:39;100903.66;;;8.60;90.04
71149;BME280;59072;42.144;25.200;2023-02-28T05:36:05;100930.69;;;8.78;89.80
71149;BME280;59072;42.144;25.200;2023-02-28T05:38:31;100938.94;;;8.83;89.79
71149;BME280;59072;42.144;25.200;2023-02-28T05:40:56;100927.78;;;8.73;89.64
71149;BME280;59072;42.144;25.200;2023-02-28T05:43:22;100923.66;;;8.56;90.44
71149;BME280;59072;42.144;25.200;2023-02-28T05:45:47;100924.94;;;8.45;91.15
71149;BME280;59072;42.144;25.200;2023-02-28T05:48:13;100940.44;;;8.41;91.53
71149;BME280;59072;42.144;25.200;2023-02-28T05:50:38;100949.47;;;8.32;92.81
71149;BME280;59072;42.144;25.200;2023-02-28T05:53:04;100941.28;;;8.42;92.51
71149;BME280;59072;42.144;25.200;2023-02-28T05:55:29;100942.25;;;8.56;91.23
71149;BME280;59072;42.144;25.200;2023-02-28T05:57:55;100931.38;;;8.51;91.50
71149;BME280;59072;42.144;25.200;2023-02-28T06:00:21;100932.38;;;8.50;91.01
71149;BME280;59072;42.144;25.200;2023-02-28T06:02:46;100945.31;;;8.53;91.13
71149;BME280;59072;42.144;25.200;2023-02-28T06:05:16;100952.06;;;8.70;90.42
71149;BME280;59072;42.144;25.200;2023-02-28T06:07:42;100957.94;;;8.65;90.38
71149;BME280;59072;42.144;25.200;2023-02-28T06:10:12;100946.69;;;8.49;90.99
71149;BME280;59072;42.144;25.200;2023-02-28T06:12:38;100962.78;;;8.62;90.98
71149;BME280;59072;42.144;25.200;2023-02-28T06:15:04;100954.28;;;8.67;89.93
71149;BME280;59072;42.144;25.200;2023-02-28T06:17:29;100967.56;;;8.81;89.89
71149;BME280;59072;42.144;25.200;2023-02-28T06:19:55;100978.34;;;8.95;88.60
71149;BME280;59072;42.144;25.200;2023-02-28T06:22:20;100975.25;;;9.06;87.88
71149;BME280;59072;42.144;25.200;2023-02-28T06:24:46;100992.31;;;8.97;88.17
71149;BME280;59072;42.144;25.200;2023-02-28T06:27:11;100989.13;;;8.57;89.80
71149;BME280;59072;42.144;25.200;2023-02-28T06:29:36;100989.56;;;8.45;91.22
71149;BME280;59072;42.144;25.200;2023-02-28T06:32:05;100977.03;;;8.54;90.55
71149;BME280;59072;42.144;25.200;2023-02-28T06:34:31;100981.78;;;8.44;90.22
71149;BME280;59072;42.144;25.200;2023-02-28T06:36:59;100979.03;;;8.52;90.43
71149;BME280;59072;42.144;25.200;2023-02-28T06:39:28;100974.97;;;8.41;91.20
71149;BME280;59072;42.144;25.200;2023-02-28T06:41:53;100993.25;;;8.59;89.92
71149;BME280;59072;42.144;25.200;2023-02-28T06:44:19;100972.84;;;8.37;90.55
71149;BME280;59072;42.144;25.200;2023-02-28T06:46:45;100964.53;;;8.40;89.64
71149;BME280;59072;42.144;25.200;2023-02-28T06:49:11;100977.69;;;8.33;90.81
71149;BME280;59072;42.144;25.200;2023-02-28T06:51:39;100990.75;;;8.43;90.81
71149;BME280;59072;42.144;25.200;2023-02-28T06:54:05;100979.53;;;8.33;91.02
71149;BME280;59072;42.144;25.200;2023-02-28T06:56:34;100995.91;;;8.44;90.50
71149;BME280;59072;42.144;25.200;2023-02-28T06:59:00;101007.72;;;8.57;90.45
71149;BME280;59072;42.144;25.200;2023-02-28T07:01:25;100992.50;;;8.51;90.59
71149;BME280;59072;42.144;25.200;2023-02-28T07:03:53;101002.34;;;8.50;90.65
71149;BME280;59072;42.144;25.200;2023-02-28T07:06:20;100979.47;;;8.41;90.49
71149;BME280;59072;42.144;25.200;2023-02-28T07:08:48;100991.41;;;8.60;89.24
71149;BME280;59072;42.144;25.200;2023-02-28T07:11:14;100990.22;;;8.10;91.50
71149;BME280;59072;42.144;25.200;2023-02-28T07:13:39;101009.41;;;8.35;91.82
71149;BME280;59072;42.144;25.200;2023-02-28T07:16:07;101010.22;;;8.35;91.29
71149;BME280;59072;42.144;25.200;2023-02-28T07:18:34;101011.16;;;8.28;91.14
71149;BME280;59072;42.144;25.200;2023-02-28T07:21:08;101010.09;;;8.52;90.59
71149;BME280;59072;42.144;25.200;2023-02-28T07:23:34;100993.84;;;8.32;90.80
71149;BME280;59072;42.144;25.200;2023-02-28T07:26:00;100985.56;;;8.12;91.57
71149;BME280;59072;42.144;25.200;2023-02-28T07:28:26;100990.25;;;8.39;90.87
71149;BME280;59072;42.144;25.200;2023-02-28T07:30:52;100970.91;;;8.31;90.71
71149;BME280;59072;42.144;25.200;2023-02-28T07:33:18;101001.69;;;8.63;89.52
71149;BME280;59072;42.144;25.200;2023-02-28T07:35:43;100999.03;;;8.48;89.29
71149;BME280;59072;42.144;25.200;2023-02-28T07:38:08;100999.47;;;8.52;89.58
71149;BME280;59072;42.144;25.200;2023-02-28T07:40:35;100984.03;;;8.32;90.25
71149;BME280;59072;42.144;25.200;2023-02-28T07:43:01;101005.88;;;8.42;90.77
71149;BME280;59072;42.144;25.200;2023-02-28T07:45:27;100998.44;;;8.38;90.71
71149;BME280;59072;42.144;25.200;2023-02-28T07:47:54;100997.00;;;8.65;89.89
71149;BME280;59072;42.144;25.200;2023-02-28T07:50:20;101006.91;;;8.71;89.68
71149;BME280;59072;42.144;25.200;2023-02-28T07:52:45;100993.00;;;8.31;90.63
71149;BME280;59072;42.144;25.200;2023-02-28T07:55:11;101001.78;;;8.17;92.22
71149;BME280;59072;42.144;25.200;2023-02-28T07:57:39;100989.91;;;8.28;91.63
71149;BME280;59072;42.144;25.200;2023-02-28T08:00:06;101010.53;;;8.40;91.84
71149;BME280;59072;42.144;25.200;2023-02-28T08:02:34;101014.84;;;8.41;91.47
71149;BME280;59072;42.144;25.200;2023-02-28T08:05:00;101006.75;;;8.35;92.32
71149;BME280;59072;42.144;25.200;2023-02-28T08:07:26;101022.78;;;8.27;93.59
71149;BME280;59072;42.144;25.200;2023-02-28T08:09:51;101031.16;;;8.38;92.97
71149;BME280;59072;42.144;25.200;2023-02-28T08:12:16;101031.06;;;8.32;93.60
71149;BME280;59072;42.144;25.200;2023-02-28T08:14:42;101022.31;;;8.23;94.46
71149;BME280;59072;42.144;25.200;2023-02-28T08:17:07;101009.88;;;8.38;93.78
71149;BME280;59072;42.144;25.200;2023-02-28T08:19:33;101006.59;;;8.36;92.67
71149;BME280;59072;42.144;25.200;2023-02-28T08:21:58;101010.47;;;8.49;93.23
71149;BME280;59072;42.144;25.200;2023-02-28T08:24:24;101032.56;;;8.49;93.46
71149;BME280;59072;42.144;25.200;2023-02-28T08:26:49;101013.41;;;8.16;95.17
71149;BME280;59072;42.144;25.200;2023-02-28T08:29:15;101014.03;;;8.41;94.16
71149;BME280;59072;42.144;25.200;2023-02-28T08:31:41;101016.84;;;8.39;94.31
71149;BME280;59072;42.144;25.200;2023-02-28T08:34:12;101015.31;;;8.45;93.68
71149;BME280;59072;42.144;25.200;2023-02-28T08:36:38;101020.53;;;8.38;94.25
71149;BME280;59072;42.144;25.200;2023-02-28T08:39:05;101001.75;;;8.40;93.51
71149;BME280;59072;42.144;25.200;2023-02-28T08:41:31;101014.78;;;8.50;93.70
71149;BME280;59072;42.144;25.200;2023-02-28T08:43:56;101017.25;;;8.66;92.58
71149;BME280;59072;42.144;25.200;2023-02-28T08:46:22;101023.78;;;8.63;92.87
71149;BME280;59072;42.144;25.200;2023-02-28T08:48:54;101008.09;;;8.54;92.43
71149;BME280;59072;42.144;25.200;2023-02-28T08:51:20;101008.28;;;8.67;91.93
71149;BME280;59072;42.144;25.200;2023-02-28T08:53:55;101008.66;;;8.79;91.63
71149;BME280;59072;42.144;25.200;2023-02-28T08:56:21;101029.38;;;8.83;90.23
71149;BME280;59072;42.144;25.200;2023-02-28T08:58:48;101033.03;;;8.68;91.31
71149;BME280;59072;42.144;25.200;2023-02-28T09:01:26;101030.38;;;8.53;92.38
71149;BME280;59072;42.144;25.200;2023-02-28T09:03:53;101040.75;;;8.77;91.13
71149;BME280;59072;42.144;25.200;2023-02-28T09:06:20;101048.25;;;8.89;90.68
71149;BME280;59072;42.144;25.200;2023-02-28T09:08:45;101041.66;;;8.84;90.54
71149;BME280;59072;42.144;25.200;2023-02-28T09:11:11;101031.75;;;8.78;90.81
71149;BME280;59072;42.144;25.200;2023-02-28T09:13:37;101046.44;;;8.89;90.19
71149;BME280;59072;42.144;25.200;2023-02-28T09:16:05;101040.94;;;8.61;91.57
71149;BME280;59072;42.144;25.200;2023-02-28T09:18:31;101024.88;;;8.69;91.08
71149;BME280;59072;42.144;25.200;2023-02-28T09:20:58;101045.13;;;8.70;91.86
71149;BME280;59072;42.144;25.200;2023-02-28T09:23:24;101027.06;;;8.65;91.25
71149;BME280;59072;42.144;25.200;2023-02-28T09:25:53;101026.69;;;8.54;92.80
71149;BME280;59072;42.144;25.200;2023-02-28T09:28:19;101011.03;;;8.89;90.94
71149;BME280;59072;42.144;25.200;2023-02-28T09:30:47;101016.19;;;8.75;91.21
71149;BME280;59072;42.144;25.200;2023-02-28T09:33:14;100986.81;;;8.98;90.10
71149;BME280;59072;42.144;25.200;2023-02-28T09:35:39;101002.66;;;9.07;89.33
71149;BME280;59072;42.144;25.200;2023-02-28T09:38:05;100993.16;;;8.97;89.71
71149;BME280;59072;42.144;25.200;2023-02-28T09:40:36;100991.31;;;8.83;90.47
71149;BME280;59072;42.144;25.200;2023-02-28T09:43:01;101005.69;;;8.89;90.30
71149;BME280;59072;42.144;25.200;2023-02-28T09:45:31;101002.50;;;8.93;90.55
71149;BME280;59072;42.144;25.200;2023-02-28T09:48:20;100992.69;;;8.94;90.54
71149;BME280;59072;42.144;25.200;2023-02-28T09:50:50;100991.66;;;9.10;89.95
71149;BME280;59072;42.144;25.200;2023-02-28T09:53:27;100990.16;;;9.22;88.62
71149;BME280;59072;42.144;25.200;2023-02-28T09:56:03;100998.09;;;9.37;87.59
71149;BME280;59072;42.144;25.200;2023-02-28T10:01:31;100982.13;;;9.37;86.76
71149;BME280;59072;42.144;25.200;2023-02-28T10:06:47;100986.97;;;9.48;86.63
71149;BME280;59072;42.144;25.200;2023-02-28T10:09:26;100995.97;;;9.47;85.25
71149;BME280;59072;42.144;25.200;2023-02-28T10:11:59;100979.75;;;9.42;85.53
71149;BME280;59072;42.144;25.200;2023-02-28T10:14:28;100975.34;;;9.56;85.40
71149;BME280;59072;42.144;25.200;2023-02-28T10:16:58;100973.72;;;9.55;85.83
71149;BME280;59072;42.144;25.200;2023-02-28T10:22:15;100980.06;;;9.54;84.77
71149;BME280;59072;42.144;25.200;2023-02-28T10:24:48;100945.38;;;9.47;84.66
71149;BME280;59072;42.144;25.200;2023-02-28T10:27:32;100942.84;;;9.39;84.51
71149;BME280;59072;42.144;25.200;2023-02-28T10:29:59;100966.31;;;9.50;84.32
71149;BME280;59072;42.144;25.200;2023-02-28T10:35:00;100965.56;;;9.56;84.86
71149;BME280;59072;42.144;25.200;2023-02-28T10:37:27;100961.22;;;9.77;83.35
71149;BME280;59072;42.144;25.200;2023-02-28T10:39:53;100953.13;;;9.42;84.81
71149;BME280;59072;42.144;25.200;2023-02-28T10:42:30;100966.44;;;9.63;83.79
71149;BME280;59072;42.144;25.200;2023-02-28T10:45:12;100970.34;;;9.68;83.92
71149;BME280;59072;42.144;25.200;2023-02-28T10:47:59;100968.47;;;9.40;84.46
71149;BME280;59072;42.144;25.200;2023-02-28T10:53:22;100950.19;;;9.37;84.60
71149;BME280;59072;42.144;25.200;2023-02-28T10:58:58;100949.13;;;9.53;83.56
71149;BME280;59072;42.144;25.200;2023-02-28T11:03:55;100921.94;;;9.36;84.21
71149;BME280;59072;42.144;25.200;2023-02-28T11:06:28;100929.84;;;9.51;83.82
71149;BME280;59072;42.144;25.200;2023-02-28T11:08:59;100919.16;;;9.44;85.03
71149;BME280;59072;42.144;25.200;2023-02-28T11:11:29;100924.31;;;9.74;82.66
71149;BME280;59072;42.144;25.200;2023-02-28T11:14:04;100923.16;;;9.83;82.41
71149;BME280;59072;42.144;25.200;2023-02-28T11:16:35;100908.28;;;9.67;82.68
71149;BME280;59072;42.144;25.200;2023-02-28T11:19:19;100927.25;;;9.57;83.63
71149;BME280;59072;42.144;25.200;2023-02-28T11:21:57;100897.63;;;9.45;83.78
71149;BME280;59072;42.144;25.200;2023-02-28T11:24:26;100931.06;;;9.48;84.65
71149;BME280;59072;42.144;25.200;2023-02-28T11:26:52;100922.16;;;9.41;84.86
71149;BME280;59072;42.144;25.200;2023-02-28T11:29:25;100918.44;;;9.57;84.36
71149;BME280;59072;42.144;25.200;2023-02-28T11:34:31;100909.38;;;9.51;84.78
71149;BME280;59072;42.144;25.200;2023-02-28T11:36:59;100902.28;;;9.58;84.77
71149;BME280;59072;42.144;25.200;2023-02-28T11:39:26;100887.19;;;9.44;85.06
71149;BME280;59072;42.144;25.200;2023-02-28T11:44:52;100904.56;;;9.40;85.58
71149;BME280;59072;42.144;25.200;2023-02-28T11:47:37;100897.31;;;9.55;84.91
71149;BME280;59072;42.144;25.200;2023-02-28T11:52:48;100901.38;;;9.73;84.00
71149;BME280;59072;42.144;25.200;2023-02-28T11:58:30;100890.09;;;9.71;83.38
71149;BME280;59072;42.144;25.200;2023-02-28T12:01:24;100906.34;;;9.82;84.53
71149;BME280;59072;42.144;25.200;2023-02-28T12:10:12;100909.44;;;9.86;82.92
71149;BME280;59072;42.144;25.200;2023-02-28T12:28:01;100900.25;;;9.89;83.20
71149;BME280;59072;42.144;25.200;2023-02-28T12:30:32;100905.06;;;9.78;83.60
71149;BME280;59072;42.144;25.200;2023-02-28T12:33:12;100889.16;;;9.85;83.18
71149;BME280;59072;42.144;25.200;2023-02-28T12:35:47;100879.78;;;9.89;83.30
71149;BME280;59072;42.144;25.200;2023-02-28T12:38:22;100901.38;;;9.73;84.41
71149;BME280;59072;42.144;25.200;2023-02-28T12:40:56;100882.03;;;9.64;83.89
71149;BME280;59072;42.144;25.200;2023-02-28T12:43:30;100880.53;;;9.83;84.20
71149;BME280;59072;42.144;25.200;2023-02-28T12:46:32;100895.00;;;9.74;86.65
71149;BME280;59072;42.144;25.200;2023-02-28T12:49:05;100888.69;;;9.75;89.38
71149;BME280;59072;42.144;25.200;2023-02-28T12:51:32;100866.47;;;9.68;90.29
71149;BME280;59072;42.144;25.200;2023-02-28T12:56:53;100878.03;;;9.53;94.51
71149;BME280;59072;42.144;25.200;2023-02-28T12:59:48;100877.81;;;9.48;96.19
71149;BME280;59072;42.144;25.200;2023-02-28T13:05:48;100881.16;;;9.57;96.94
71149;BME280;59072;42.144;25.200;2023-02-28T13:11:06;100857.38;;;9.55;98.40
71149;BME280;59072;42.144;25.200;2023-02-28T13:13:32;100857.34;;;9.49;97.46
71149;BME280;59072;42.144;25.200;2023-02-28T13:16:09;100865.06;;;9.43;98.07
71149;BME280;59072;42.144;25.200;2023-02-28T13:21:24;100871.75;;;9.61;99.77
71149;BME280;59072;42.144;25.200;2023-02-28T13:26:21;100869.19;;;9.46;99.44
71149;BME280;59072;42.144;25.200;2023-02-28T13:31:31;100885.38;;;9.73;98.64
71149;BME280;59072;42.144;25.200;2023-02-28T13:34:11;100873.47;;;9.69;99.19
71149;BME280;59072;42.144;25.200;2023-02-28T13:36:37;100876.00;;;9.55;99.20
71149;BME280;59072;42.144;25.200;2023-02-28T13:47:33;100876.09;;;9.40;100.00
71149;BME280;59072;42.144;25.200;2023-02-28T13:58:25;100863.19;;;9.16;100.00
71149;BME280;59072;42.144;25.200;2023-02-28T14:03:57;100851.91;;;9.14;100.00
71149;BME280;59072;42.144;25.200;2023-02-28T14:06:38;100851.19;;;9.05;100.00
71149;BME280;59072;42.144;25.200;2023-02-28T14:11:39;100850.63;;;9.10;100.00
71149;BME280;59072;42.144;25.200;2023-02-28T14:14:07;100840.25;;;8.93;100.00
71149;BME280;59072;42.144;25.200;2023-02-28T14:16:47;100870.31;;;8.94;100.00
71149;BME280;59072;42.144;25.200;2023-02-28T14:19:24;100873.56;;;8.74;100.00
71149;BME280;59072;42.144;25.200;2023-02-28T14:27:40;100886.31;;;8.79;100.00
71149;BME280;59072;42.144;25.200;2023-02-28T14:38:25;100876.44;;;8.58;100.00
71149;BME280;59072;42.144;25.200;2023-02-28T14:40:57;100879.13;;;8.43;100.00
71149;BME280;59072;42.144;25.200;2023-02-28T14:43:26;100883.22;;;8.45;100.00
71149;BME280;59072;42.144;25.200;2023-02-28T14:45:59;100884.91;;;8.47;100.00
71149;BME280;59072;42.144;25.200;2023-02-28T14:48:26;100887.88;;;8.73;100.00
71149;BME280;59072;42.144;25.200;2023-02-28T14:50:59;100895.59;;;8.38;100.00
71149;BME280;59072;42.144;25.200;2023-02-28T14:53:30;100873.41;;;8.31;100.00
71149;BME280;59072;42.144;25.200;2023-02-28T14:56:00;100892.38;;;8.58;100.00
71149;BME280;59072;42.144;25.200;2023-02-28T14:58:31;100882.91;;;8.70;100.00
71149;BME280;59072;42.144;25.200;2023-02-28T15:00:59;100891.41;;;8.44;100.00
71149;BME280;59072;42.144;25.200;2023-02-28T15:03:32;100898.69;;;8.12;100.00
71149;BME280;59072;42.144;25.200;2023-02-28T15:06:04;100907.69;;;8.26;100.00
71149;BME280;59072;42.144;25.200;2023-02-28T15:08:30;100907.38;;;8.44;100.00
71149;BME280;59072;42.144;25.200;2023-02-28T15:11:03;100898.16;;;8.32;100.00
71149;BME280;59072;42.144;25.200;2023-02-28T15:13:44;100898.44;;;8.22;100.00
71149;BME280;59072;42.144;25.200;2023-02-28T15:16:17;100908.28;;;7.98;100.00
71149;BME280;59072;42.144;25.200;2023-02-28T15:18:50;100899.69;;;7.96;100.00
71149;BME280;59072;42.144;25.200;2023-02-28T15:21:18;100915.94;;;8.31;100.00
71149;BME280;59072;42.144;25.200;2023-02-28T15:26:36;100918.22;;;8.34;100.00
71149;BME280;59072;42.144;25.200;2023-02-28T15:29:12;100927.50;;;8.68;100.00
71149;BME280;59072;42.144;25.200;2023-02-28T15:31:48;100915.84;;;8.10;100.00
71149;BME280;59072;42.144;25.200;2023-02-28T15:34:26;100921.53;;;8.36;100.00
71149;BME280;59072;42.144;25.200;2023-02-28T15:36:52;100931.47;;;8.42;100.00
71149;BME280;59072;42.144;25.200;2023-02-28T15:39:23;100926.63;;;8.08;100.00
71149;BME280;59072;42.144;25.200;2023-02-28T15:41:48;100930.69;;;8.34;100.00
71149;BME280;59072;42.144;25.200;2023-02-28T15:44:26;100934.09;;;8.28;100.00